sensor_id;sensor_type;location;lat;lon;timestamp;P1;durP1;ratioP1;P2;durP2;ratioP2
9409;SDS011;4744;52.576;13.568;2023-02-01T00:02:21;8.77;;;2.58;;
9409;SDS011;4744;52.576;13.568;2023-02-01T00:04:47;11.65;;;2.95;;
9409;SDS011;4744;52.576;13.568;2023-02-01T00:07:14;11.38;;;3.50;;
9409;SDS011;4744;52.576;13.568;2023-02-01T00:09:41;13.00;;;3.30;;
9409;SDS011;4744;52.576;13.568;2023-02-01T00:12:08;10.00;;;2.88;;
9409;SDS011;4744;52.576;13.568;2023-02-01T00:14:36;13.15;;;3.42;;
9409;SDS011;4744;52.576;13.568;2023-02-01T00:17:04;13.07;;;3.28;;
9409;SDS011;4744;52.576;13.568;2023-02-01T00:19:32;9.02;;;2.95;;
9409;SDS011;4744;52.576;13.568;2023-02-01T00:21:59;11.13;;;3.40;;
9409;SDS011;4744;52.576;13.568;2023-02-01T00:24:26;11.85;;;2.80;;
9409;SDS011;4744;52.576;13.568;2023-02-01T00:26:53;11.93;;;3.08;;
9409;SDS011;4744;52.576;13.568;2023-02-01T00:29:20;11.93;;;3.47;;
9409;SDS011;4744;52.576;13.568;2023-02-01T00:31:50;10.85;;;3.13;;
9409;SDS011;4744;52.576;13.568;2023-02-01T00:34:18;13.95;;;3.03;;
9409;SDS011;4744;52.576;13.568;2023-02-01T00:36:46;11.63;;;3.15;;
9409;SDS011;4744;52.576;13.568;2023-02-01T00:39:13;10.38;;;3.22;;
9409;SDS011;4744;52.576;13.568;2023-02-01T00:41:41;12.40;;;3.42;;
9409;SDS011;4744;52.576;13.568;2023-02-01T00:44:08;11.70;;;3.22;;
9409;SDS011;4744;52.576;13.568;2023-02-01T00:46:35;10.40;;;3.25;;
9409;SDS011;4744;52.576;13.568;2023-02-01T00:49:03;10.82;;;3.17;;
9409;SDS011;4744;52.576;13.568;2023-02-01T00:51:32;12.55;;;3.05;;
9409;SDS011;4744;52.576;13.568;2023-02-01T00:53:59;10.27;;;3.10;;
9409;SDS011;4744;52.576;13.568;2023-02-01T00:56:26;8.10;;;2.70;;
9409;SDS011;4744;52.576;13.568;2023-02-01T00:58:53;8.27;;;2.58;;
9409;SDS011;4744;52.576;13.568;2023-02-01T01:01:21;11.45;;;2.85;;
9409;SDS011;4744;52.576;13.568;2023-02-01T01:03:50;12.35;;;2.80;;
9409;SDS011;4744;52.576;13.568;2023-02-01T01:06:21;9.35;;;2.70;;
9409;SDS011;4744;52.576;13.568;2023-02-01T01:08:50;9.20;;;2.42;;
9409;SDS011;4744;52.576;13.568;2023-02-01T01:11:18;10.77;;;2.92;;
9409;SDS011;4744;52.576;13.568;2023-02-01T01:13:47;9.20;;;2.80;;
9409;SDS011;4744;52.576;13.568;2023-02-01T01:16:15;5.65;;;1.90;;
9409;SDS011;4744;52.576;13.568;2023-02-01T01:18:43;11.10;;;2.80;;
9409;SDS011;4744;52.576;13.568;2023-02-01T01:21:11;7.60;;;2.63;;
9409;SDS011;4744;52.576;13.568;2023-02-01T01:23:41;6.55;;;2.70;;
9409;SDS011;4744;52.576;13.568;2023-02-01T01:26:09;10.25;;;3.10;;
9409;SDS011;4744;52.576;13.568;2023-02-01T01:28:38;8.20;;;2.55;;
9409;SDS011;4744;52.576;13.568;2023-02-01T01:31:07;12.20;;;2.72;;
9409;SDS011;4744;52.576;13.568;2023-02-01T01:33:35;7.78;;;2.15;;
9409;SDS011;4744;52.576;13.568;2023-02-01T01:36:04;7.55;;;2.70;;
9409;SDS011;4744;52.576;13.568;2023-02-01T01:38:31;7.75;;;2.20;;
9409;SDS011;4744;52.576;13.568;2023-02-01T01:40:59;12.05;;;2.90;;
9409;SDS011;4744;52.576;13.568;2023-02-01T01:46:16;7.78;;;2.50;;
9409;SDS011;4744;52.576;13.568;2023-02-01T01:48:44;9.25;;;2.67;;
9409;SDS011;4744;52.576;13.568;2023-02-01T01:51:12;7.47;;;2.42;;
9409;SDS011;4744;52.576;13.568;2023-02-01T01:53:43;9.70;;;2.70;;
9409;SDS011;4744;52.576;13.568;2023-02-01T01:56:15;6.55;;;2.55;;
9409;SDS011;4744;52.576;13.568;2023-02-01T01:58:43;10.45;;;2.92;;
9409;SDS011;4744;52.576;13.568;2023-02-01T02:01:10;9.80;;;3.03;;
9409;SDS011;4744;52.576;13.568;2023-02-01T02:03:37;9.25;;;2.50;;
9409;SDS011;4744;52.576;13.568;2023-02-01T02:06:09;9.38;;;2.83;;
9409;SDS011;4744;52.576;13.568;2023-02-01T02:08:41;8.68;;;2.95;;
9409;SDS011;4744;52.576;13.568;2023-02-01T02:11:09;10.90;;;3.00;;
9409;SDS011;4744;52.576;13.568;2023-02-01T02:13:40;7.13;;;3.17;;
9409;SDS011;4744;52.576;13.568;2023-02-01T02:16:17;8.48;;;2.60;;
9409;SDS011;4744;52.576;13.568;2023-02-01T02:19:14;9.02;;;2.80;;
9409;SDS011;4744;52.576;13.568;2023-02-01T02:22:05;9.88;;;3.22;;
9409;SDS011;4744;52.576;13.568;2023-02-01T02:25:02;11.70;;;2.75;;
9409;SDS011;4744;52.576;13.568;2023-02-01T02:27:59;8.25;;;2.50;;
9409;SDS011;4744;52.576;13.568;2023-02-01T02:33:42;9.50;;;3.17;;
9409;SDS011;4744;52.576;13.568;2023-02-01T02:36:19;12.60;;;2.88;;
9409;SDS011;4744;52.576;13.568;2023-02-01T02:39:03;10.68;;;2.88;;
9409;SDS011;4744;52.576;13.568;2023-02-01T02:41:36;8.73;;;2.90;;
9409;SDS011;4744;52.576;13.568;2023-02-01T02:44:30;14.32;;;3.30;;
9409;SDS011;4744;52.576;13.568;2023-02-01T02:47:21;11.00;;;2.72;;
9409;SDS011;4744;52.576;13.568;2023-02-01T02:50:00;10.88;;;2.80;;
9409;SDS011;4744;52.576;13.568;2023-02-01T02:52:53;12.25;;;3.10;;
9409;SDS011;4744;52.576;13.568;2023-02-01T02:55:41;9.77;;;2.70;;
9409;SDS011;4744;52.576;13.568;2023-02-01T02:58:09;10.48;;;2.72;;
9409;SDS011;4744;52.576;13.568;2023-02-01T03:00:55;11.10;;;3.38;;
9409;SDS011;4744;52.576;13.568;2023-02-01T03:03:41;12.68;;;3.13;;
9409;SDS011;4744;52.576;13.568;2023-02-01T03:06:35;12.95;;;2.92;;
9409;SDS011;4744;52.576;13.568;2023-02-01T03:09:05;9.35;;;2.70;;
9409;SDS011;4744;52.576;13.568;2023-02-01T03:11:38;10.40;;;2.55;;
9409;SDS011;4744;52.576;13.568;2023-02-01T03:14:24;9.85;;;2.83;;
9409;SDS011;4744;52.576;13.568;2023-02-01T03:16:57;8.82;;;3.17;;
9409;SDS011;4744;52.576;13.568;2023-02-01T03:19:29;12.00;;;2.95;;
9409;SDS011;4744;52.576;13.568;2023-02-01T03:22:02;14.65;;;3.83;;
9409;SDS011;4744;52.576;13.568;2023-02-01T03:24:32;8.27;;;2.53;;
9409;SDS011;4744;52.576;13.568;2023-02-01T03:27:05;13.48;;;3.00;;
9409;SDS011;4744;52.576;13.568;2023-02-01T03:29:37;15.77;;;3.22;;
9409;SDS011;4744;52.576;13.568;2023-02-01T03:32:06;9.50;;;2.60;;
9409;SDS011;4744;52.576;13.568;2023-02-01T03:34:35;9.02;;;2.65;;
9409;SDS011;4744;52.576;13.568;2023-02-01T03:37:04;9.13;;;2.42;;
9409;SDS011;4744;52.576;13.568;2023-02-01T03:39:36;13.18;;;3.08;;
9409;SDS011;4744;52.576;13.568;2023-02-01T03:42:07;15.75;;;3.67;;
9409;SDS011;4744;52.576;13.568;2023-02-01T03:44:40;10.52;;;2.97;;
9409;SDS011;4744;52.576;13.568;2023-02-01T03:47:13;12.25;;;3.10;;
9409;SDS011;4744;52.576;13.568;2023-02-01T03:49:45;10.02;;;2.67;;
9409;SDS011;4744;52.576;13.568;2023-02-01T03:52:17;9.88;;;2.83;;
9409;SDS011;4744;52.576;13.568;2023-02-01T03:54:48;9.80;;;3.28;;
9409;SDS011;4744;52.576;13.568;2023-02-01T03:57:16;10.48;;;3.05;;
9409;SDS011;4744;52.576;13.568;2023-02-01T03:59:48;15.60;;;3.83;;
9409;SDS011;4744;52.576;13.568;2023-02-01T04:02:16;10.93;;;2.78;;
9409;SDS011;4744;52.576;13.568;2023-02-01T04:04:43;13.00;;;3.35;;
9409;SDS011;4744;52.576;13.568;2023-02-01T04:07:10;15.45;;;3.17;;
9409;SDS011;4744;52.576;13.568;2023-02-01T04:09:39;12.35;;;3.17;;
9409;SDS011;4744;52.576;13.568;2023-02-01T04:12:06;10.50;;;3.28;;
9409;SDS011;4744;52.576;13.568;2023-02-01T04:14:33;10.07;;;2.80;;
9409;SDS011;4744;52.576;13.568;2023-02-01T04:17:00;12.68;;;2.80;;
9409;SDS011;4744;52.576;13.568;2023-02-01T04:19:27;10.90;;;2.97;;
9409;SDS011;4744;52.576;13.568;2023-02-01T04:21:54;9.20;;;3.17;;
9409;SDS011;4744;52.576;13.568;2023-02-01T04:24:21;10.95;;;3.22;;
9409;SDS011;4744;52.576;13.568;2023-02-01T04:26:49;12.43;;;3.15;;
9409;SDS011;4744;52.576;13.568;2023-02-01T04:29:16;10.38;;;3.25;;
9409;SDS011;4744;52.576;13.568;2023-02-01T04:31:43;12.52;;;2.92;;
9409;SDS011;4744;52.576;13.568;2023-02-01T04:34:11;12.55;;;3.10;;
9409;SDS011;4744;52.576;13.568;2023-02-01T04:36:38;12.05;;;3.20;;
9409;SDS011;4744;52.576;13.568;2023-02-01T04:39:05;10.95;;;3.13;;
9409;SDS011;4744;52.576;13.568;2023-02-01T04:41:32;19.08;;;3.80;;
9409;SDS011;4744;52.576;13.568;2023-02-01T04:44:00;9.88;;;3.47;;
9409;SDS011;4744;52.576;13.568;2023-02-01T04:46:27;14.02;;;3.35;;
9409;SDS011;4744;52.576;13.568;2023-02-01T04:48:54;13.57;;;3.53;;
9409;SDS011;4744;52.576;13.568;2023-02-01T04:51:21;11.63;;;3.78;;
9409;SDS011;4744;52.576;13.568;2023-02-01T04:53:48;14.10;;;3.40;;
9409;SDS011;4744;52.576;13.568;2023-02-01T04:56:14;9.05;;;2.75;;
9409;SDS011;4744;52.576;13.568;2023-02-01T04:58:41;11.98;;;3.20;;
9409;SDS011;4744;52.576;13.568;2023-02-01T05:01:10;13.52;;;3.35;;
9409;SDS011;4744;52.576;13.568;2023-02-01T05:03:36;10.05;;;3.42;;
9409;SDS011;4744;52.576;13.568;2023-02-01T05:06:03;16.33;;;3.63;;
9409;SDS011;4744;52.576;13.568;2023-02-01T05:08:31;10.95;;;3.15;;
9409;SDS011;4744;52.576;13.568;2023-02-01T05:10:58;9.23;;;3.00;;
9409;SDS011;4744;52.576;13.568;2023-02-01T05:13:27;15.32;;;3.45;;
9409;SDS011;4744;52.576;13.568;2023-02-01T05:16:13;14.48;;;3.88;;
9409;SDS011;4744;52.576;13.568;2023-02-01T05:18:40;9.10;;;3.50;;
9409;SDS011;4744;52.576;13.568;2023-02-01T05:21:07;14.38;;;3.20;;
9409;SDS011;4744;52.576;13.568;2023-02-01T05:23:34;13.73;;;4.00;;
9409;SDS011;4744;52.576;13.568;2023-02-01T05:26:22;12.38;;;3.83;;
9409;SDS011;4744;52.576;13.568;2023-02-01T05:28:49;11.48;;;3.25;;
9409;SDS011;4744;52.576;13.568;2023-02-01T05:31:18;10.15;;;3.20;;
9409;SDS011;4744;52.576;13.568;2023-02-01T05:33:45;16.58;;;4.22;;
9409;SDS011;4744;52.576;13.568;2023-02-01T05:36:12;12.88;;;3.88;;
9409;SDS011;4744;52.576;13.568;2023-02-01T05:38:39;12.07;;;3.22;;
9409;SDS011;4744;52.576;13.568;2023-02-01T05:41:06;11.55;;;3.80;;
9409;SDS011;4744;52.576;13.568;2023-02-01T05:43:33;13.70;;;3.70;;
9409;SDS011;4744;52.576;13.568;2023-02-01T05:46:00;9.90;;;3.17;;
9409;SDS011;4744;52.576;13.568;2023-02-01T05:48:28;8.77;;;3.00;;
9409;SDS011;4744;52.576;13.568;2023-02-01T05:50:55;11.48;;;3.13;;
9409;SDS011;4744;52.576;13.568;2023-02-01T05:53:22;10.68;;;3.20;;
9409;SDS011;4744;52.576;13.568;2023-02-01T05:55:49;15.32;;;3.92;;
9409;SDS011;4744;52.576;13.568;2023-02-01T05:58:16;9.75;;;3.25;;
9409;SDS011;4744;52.576;13.568;2023-02-01T06:00:43;14.65;;;3.42;;
9409;SDS011;4744;52.576;13.568;2023-02-01T06:03:10;12.65;;;3.55;;
9409;SDS011;4744;52.576;13.568;2023-02-01T06:05:38;13.50;;;3.03;;
9409;SDS011;4744;52.576;13.568;2023-02-01T06:08:05;10.93;;;3.33;;
9409;SDS011;4744;52.576;13.568;2023-02-01T06:10:33;14.95;;;3.22;;
9409;SDS011;4744;52.576;13.568;2023-02-01T06:13:00;12.18;;;3.75;;
9409;SDS011;4744;52.576;13.568;2023-02-01T06:15:28;11.20;;;3.33;;
9409;SDS011;4744;52.576;13.568;2023-02-01T06:17:55;14.13;;;3.65;;
9409;SDS011;4744;52.576;13.568;2023-02-01T06:20:22;13.75;;;3.42;;
9409;SDS011;4744;52.576;13.568;2023-02-01T06:22:51;9.60;;;2.95;;
9409;SDS011;4744;52.576;13.568;2023-02-01T06:25:18;13.35;;;3.45;;
9409;SDS011;4744;52.576;13.568;2023-02-01T06:27:46;14.82;;;3.80;;
9409;SDS011;4744;52.576;13.568;2023-02-01T06:30:13;10.27;;;3.50;;
9409;SDS011;4744;52.576;13.568;2023-02-01T06:32:40;13.15;;;3.17;;
9409;SDS011;4744;52.576;13.568;2023-02-01T06:35:08;12.38;;;3.33;;
9409;SDS011;4744;52.576;13.568;2023-02-01T06:37:36;10.75;;;3.50;;
9409;SDS011;4744;52.576;13.568;2023-02-01T06:40:05;12.60;;;3.88;;
9409;SDS011;4744;52.576;13.568;2023-02-01T06:42:34;10.98;;;3.45;;
9409;SDS011;4744;52.576;13.568;2023-02-01T06:45:00;8.65;;;2.97;;
9409;SDS011;4744;52.576;13.568;2023-02-01T06:47:27;15.60;;;3.88;;
9409;SDS011;4744;52.576;13.568;2023-02-01T06:49:54;16.05;;;3.45;;
9409;SDS011;4744;52.576;13.568;2023-02-01T06:52:21;13.27;;;4.50;;
9409;SDS011;4744;52.576;13.568;2023-02-01T06:54:48;8.77;;;3.15;;
9409;SDS011;4744;52.576;13.568;2023-02-01T06:57:16;9.68;;;3.25;;
9409;SDS011;4744;52.576;13.568;2023-02-01T06:59:43;13.15;;;3.50;;
9409;SDS011;4744;52.576;13.568;2023-02-01T07:02:10;15.25;;;3.83;;
9409;SDS011;4744;52.576;13.568;2023-02-01T07:04:37;14.10;;;3.42;;
9409;SDS011;4744;52.576;13.568;2023-02-01T07:07:04;11.18;;;3.38;;
9409;SDS011;4744;52.576;13.568;2023-02-01T07:09:31;14.38;;;3.63;;
9409;SDS011;4744;52.576;13.568;2023-02-01T07:11:58;11.68;;;3.78;;
9409;SDS011;4744;52.576;13.568;2023-02-01T07:14:26;16.13;;;3.70;;
9409;SDS011;4744;52.576;13.568;2023-02-01T07:16:53;12.00;;;3.78;;
9409;SDS011;4744;52.576;13.568;2023-02-01T07:19:20;10.50;;;3.78;;
9409;SDS011;4744;52.576;13.568;2023-02-01T07:21:47;11.02;;;3.53;;
9409;SDS011;4744;52.576;13.568;2023-02-01T07:24:14;8.65;;;2.63;;
9409;SDS011;4744;52.576;13.568;2023-02-01T07:26:41;14.85;;;3.25;;
9409;SDS011;4744;52.576;13.568;2023-02-01T07:29:08;10.32;;;2.92;;
9409;SDS011;4744;52.576;13.568;2023-02-01T07:31:36;13.93;;;3.30;;
9409;SDS011;4744;52.576;13.568;2023-02-01T07:34:03;11.32;;;2.92;;
9409;SDS011;4744;52.576;13.568;2023-02-01T07:36:30;12.52;;;3.35;;
9409;SDS011;4744;52.576;13.568;2023-02-01T07:38:58;11.73;;;3.45;;
9409;SDS011;4744;52.576;13.568;2023-02-01T07:41:25;15.15;;;3.53;;
9409;SDS011;4744;52.576;13.568;2023-02-01T07:43:52;13.38;;;3.60;;
9409;SDS011;4744;52.576;13.568;2023-02-01T07:46:19;9.13;;;3.30;;
9409;SDS011;4744;52.576;13.568;2023-02-01T07:48:48;10.40;;;3.20;;
9409;SDS011;4744;52.576;13.568;2023-02-01T07:51:15;12.68;;;3.00;;
9409;SDS011;4744;52.576;13.568;2023-02-01T07:53:43;10.55;;;3.25;;
9409;SDS011;4744;52.576;13.568;2023-02-01T07:56:11;14.48;;;3.35;;
9409;SDS011;4744;52.576;13.568;2023-02-01T07:58:39;13.68;;;3.00;;
9409;SDS011;4744;52.576;13.568;2023-02-01T08:01:11;11.18;;;3.10;;
9409;SDS011;4744;52.576;13.568;2023-02-01T08:03:47;11.90;;;3.28;;
9409;SDS011;4744;52.576;13.568;2023-02-01T08:06:15;10.23;;;3.15;;
9409;SDS011;4744;52.576;13.568;2023-02-01T08:08:42;7.00;;;2.78;;
9409;SDS011;4744;52.576;13.568;2023-02-01T08:11:10;8.13;;;3.13;;
9409;SDS011;4744;52.576;13.568;2023-02-01T08:13:37;8.10;;;2.45;;
9409;SDS011;4744;52.576;13.568;2023-02-01T08:16:04;7.15;;;2.35;;
9409;SDS011;4744;52.576;13.568;2023-02-01T08:18:33;6.72;;;2.67;;
9409;SDS011;4744;52.576;13.568;2023-02-01T08:21:04;7.53;;;2.22;;
9409;SDS011;4744;52.576;13.568;2023-02-01T08:23:32;4.78;;;2.05;;
9409;SDS011;4744;52.576;13.568;2023-02-01T08:26:08;8.57;;;2.45;;
9409;SDS011;4744;52.576;13.568;2023-02-01T08:28:37;5.45;;;2.10;;
9409;SDS011;4744;52.576;13.568;2023-02-01T08:31:06;7.18;;;2.70;;
9409;SDS011;4744;52.576;13.568;2023-02-01T08:33:34;5.28;;;2.10;;
9409;SDS011;4744;52.576;13.568;2023-02-01T08:36:04;4.60;;;1.98;;
9409;SDS011;4744;52.576;13.568;2023-02-01T08:38:34;3.25;;;2.00;;
9409;SDS011;4744;52.576;13.568;2023-02-01T08:41:05;4.18;;;2.17;;
9409;SDS011;4744;52.576;13.568;2023-02-01T08:43:33;4.32;;;2.35;;
9409;SDS011;4744;52.576;13.568;2023-02-01T08:46:00;5.70;;;2.55;;
9409;SDS011;4744;52.576;13.568;2023-02-01T08:48:27;5.97;;;2.22;;
9409;SDS011;4744;52.576;13.568;2023-02-01T08:50:54;4.95;;;2.20;;
9409;SDS011;4744;52.576;13.568;2023-02-01T08:53:22;3.50;;;2.33;;
9409;SDS011;4744;52.576;13.568;2023-02-01T08:55:49;3.65;;;2.17;;
9409;SDS011;4744;52.576;13.568;2023-02-01T08:58:16;4.20;;;2.40;;
9409;SDS011;4744;52.576;13.568;2023-02-01T09:00:44;8.52;;;2.65;;
9409;SDS011;4744;52.576;13.568;2023-02-01T09:03:13;5.30;;;2.92;;
9409;SDS011;4744;52.576;13.568;2023-02-01T09:05:40;5.05;;;2.10;;
9409;SDS011;4744;52.576;13.568;2023-02-01T09:08:07;5.03;;;2.03;;
9409;SDS011;4744;52.576;13.568;2023-02-01T09:10:36;3.67;;;1.63;;
9409;SDS011;4744;52.576;13.568;2023-02-01T09:13:03;7.47;;;2.03;;
9409;SDS011;4744;52.576;13.568;2023-02-01T09:15:30;3.95;;;1.70;;
9409;SDS011;4744;52.576;13.568;2023-02-01T09:17:57;4.07;;;1.83;;
9409;SDS011;4744;52.576;13.568;2023-02-01T09:20:23;3.80;;;1.50;;
9409;SDS011;4744;52.576;13.568;2023-02-01T09:22:50;3.78;;;1.92;;
9409;SDS011;4744;52.576;13.568;2023-02-01T09:25:17;2.90;;;1.73;;
9409;SDS011;4744;52.576;13.568;2023-02-01T09:27:46;3.38;;;1.90;;
9409;SDS011;4744;52.576;13.568;2023-02-01T09:30:13;5.00;;;1.98;;
9409;SDS011;4744;52.576;13.568;2023-02-01T09:32:40;3.33;;;1.75;;
9409;SDS011;4744;52.576;13.568;2023-02-01T09:35:07;5.30;;;1.83;;
9409;SDS011;4744;52.576;13.568;2023-02-01T09:37:34;3.30;;;1.92;;
9409;SDS011;4744;52.576;13.568;2023-02-01T09:40:02;4.68;;;1.73;;
9409;SDS011;4744;52.576;13.568;2023-02-01T09:42:36;2.80;;;1.58;;
9409;SDS011;4744;52.576;13.568;2023-02-01T09:45:27;4.80;;;1.80;;
9409;SDS011;4744;52.576;13.568;2023-02-01T09:48:01;4.07;;;1.67;;
9409;SDS011;4744;52.576;13.568;2023-02-01T09:50:33;3.60;;;1.75;;
9409;SDS011;4744;52.576;13.568;2023-02-01T09:53:04;2.33;;;1.77;;
9409;SDS011;4744;52.576;13.568;2023-02-01T09:55:35;4.30;;;1.60;;
9409;SDS011;4744;52.576;13.568;2023-02-01T09:58:07;3.63;;;1.33;;
9409;SDS011;4744;52.576;13.568;2023-02-01T10:00:49;3.60;;;1.30;;
9409;SDS011;4744;52.576;13.568;2023-02-01T10:03:18;1.95;;;1.42;;
9409;SDS011;4744;52.576;13.568;2023-02-01T10:08:56;2.67;;;1.13;;
9409;SDS011;4744;52.576;13.568;2023-02-01T10:11:37;2.13;;;1.17;;
9409;SDS011;4744;52.576;13.568;2023-02-01T10:14:24;2.45;;;1.15;;
9409;SDS011;4744;52.576;13.568;2023-02-01T10:17:08;1.90;;;1.30;;
9409;SDS011;4744;52.576;13.568;2023-02-01T10:19:44;2.45;;;1.15;;
9409;SDS011;4744;52.576;13.568;2023-02-01T10:22:23;1.67;;;1.10;;
9409;SDS011;4744;52.576;13.568;2023-02-01T10:25:06;2.95;;;1.30;;
9409;SDS011;4744;52.576;13.568;2023-02-01T10:27:39;2.10;;;1.00;;
9409;SDS011;4744;52.576;13.568;2023-02-01T10:30:14;2.65;;;1.52;;
9409;SDS011;4744;52.576;13.568;2023-02-01T10:32:47;1.92;;;0.98;;
9409;SDS011;4744;52.576;13.568;2023-02-01T10:35:18;3.20;;;1.30;;
9409;SDS011;4744;52.576;13.568;2023-02-01T10:37:50;3.47;;;1.30;;
9409;SDS011;4744;52.576;13.568;2023-02-01T10:40:18;5.97;;;1.48;;
9409;SDS011;4744;52.576;13.568;2023-02-01T10:42:47;4.50;;;1.48;;
9409;SDS011;4744;52.576;13.568;2023-02-01T10:45:19;4.25;;;1.23;;
9409;SDS011;4744;52.576;13.568;2023-02-01T10:47:49;3.42;;;1.50;;
9409;SDS011;4744;52.576;13.568;2023-02-01T10:50:20;5.20;;;1.80;;
9409;SDS011;4744;52.576;13.568;2023-02-01T10:53:00;4.68;;;1.60;;
9409;SDS011;4744;52.576;13.568;2023-02-01T10:55:33;2.00;;;1.65;;
9409;SDS011;4744;52.576;13.568;2023-02-01T10:58:03;3.45;;;1.50;;
9409;SDS011;4744;52.576;13.568;2023-02-01T11:00:40;6.28;;;1.52;;
9409;SDS011;4744;52.576;13.568;2023-02-01T11:03:20;2.88;;;1.60;;
9409;SDS011;4744;52.576;13.568;2023-02-01T11:05:53;5.22;;;1.55;;
9409;SDS011;4744;52.576;13.568;2023-02-01T11:08:22;2.60;;;1.05;;
9409;SDS011;4744;52.576;13.568;2023-02-01T11:10:56;2.67;;;1.50;;
9409;SDS011;4744;52.576;13.568;2023-02-01T11:13:27;2.58;;;1.05;;
9409;SDS011;4744;52.576;13.568;2023-02-01T11:15:57;4.10;;;1.48;;
9409;SDS011;4744;52.576;13.568;2023-02-01T11:18:25;6.07;;;1.65;;
9409;SDS011;4744;52.576;13.568;2023-02-01T11:20:54;3.42;;;1.27;;
9409;SDS011;4744;52.576;13.568;2023-02-01T11:23:22;4.25;;;1.60;;
9409;SDS011;4744;52.576;13.568;2023-02-01T11:25:52;4.20;;;1.50;;
9409;SDS011;4744;52.576;13.568;2023-02-01T11:28:21;4.95;;;1.52;;
9409;SDS011;4744;52.576;13.568;2023-02-01T11:30:51;5.22;;;2.15;;
9409;SDS011;4744;52.576;13.568;2023-02-01T11:33:23;3.60;;;1.42;;
9409;SDS011;4744;52.576;13.568;2023-02-01T11:35:54;5.20;;;1.50;;
9409;SDS011;4744;52.576;13.568;2023-02-01T11:38:25;4.18;;;1.60;;
9409;SDS011;4744;52.576;13.568;2023-02-01T11:40:54;6.63;;;1.83;;
9409;SDS011;4744;52.576;13.568;2023-02-01T11:43:22;5.25;;;1.80;;
9409;SDS011;4744;52.576;13.568;2023-02-01T11:45:54;5.30;;;2.00;;
9409;SDS011;4744;52.576;13.568;2023-02-01T11:48:25;4.95;;;1.80;;
9409;SDS011;4744;52.576;13.568;2023-02-01T11:50:56;7.00;;;2.10;;
9409;SDS011;4744;52.576;13.568;2023-02-01T11:53:55;4.82;;;2.15;;
9409;SDS011;4744;52.576;13.568;2023-02-01T11:56:42;4.68;;;1.60;;
9409;SDS011;4744;52.576;13.568;2023-02-01T11:59:23;6.47;;;2.05;;
9409;SDS011;4744;52.576;13.568;2023-02-01T12:02:19;3.90;;;1.77;;
9409;SDS011;4744;52.576;13.568;2023-02-01T12:05:24;6.22;;;2.67;;
9409;SDS011;4744;52.576;13.568;2023-02-01T12:08:00;6.72;;;2.20;;
9409;SDS011;4744;52.576;13.568;2023-02-01T12:10:44;7.60;;;2.33;;
9409;SDS011;4744;52.576;13.568;2023-02-01T12:13:23;5.55;;;2.10;;
9409;SDS011;4744;52.576;13.568;2023-02-01T12:16:02;7.22;;;2.03;;
9409;SDS011;4744;52.576;13.568;2023-02-01T12:18:49;4.18;;;1.85;;
9409;SDS011;4744;52.576;13.568;2023-02-01T12:21:34;3.97;;;1.92;;
9409;SDS011;4744;52.576;13.568;2023-02-01T12:24:18;5.60;;;1.90;;
9409;SDS011;4744;52.576;13.568;2023-02-01T12:27:25;5.20;;;2.40;;
9409;SDS011;4744;52.576;13.568;2023-02-01T12:30:23;5.75;;;1.75;;
9409;SDS011;4744;52.576;13.568;2023-02-01T12:33:04;4.45;;;1.70;;
9409;SDS011;4744;52.576;13.568;2023-02-01T12:35:44;7.10;;;2.10;;
9409;SDS011;4744;52.576;13.568;2023-02-01T12:38:26;5.40;;;1.80;;
9409;SDS011;4744;52.576;13.568;2023-02-01T12:41:08;5.72;;;1.90;;
9409;SDS011;4744;52.576;13.568;2023-02-01T12:43:45;7.32;;;2.22;;
9409;SDS011;4744;52.576;13.568;2023-02-01T12:46:16;3.85;;;1.90;;
9409;SDS011;4744;52.576;13.568;2023-02-01T12:48:52;5.97;;;2.15;;
9409;SDS011;4744;52.576;13.568;2023-02-01T12:51:24;4.90;;;1.90;;
9409;SDS011;4744;52.576;13.568;2023-02-01T12:53:57;6.18;;;1.73;;
9409;SDS011;4744;52.576;13.568;2023-02-01T12:56:31;4.10;;;2.15;;
9409;SDS011;4744;52.576;13.568;2023-02-01T12:59:10;5.75;;;1.90;;
9409;SDS011;4744;52.576;13.568;2023-02-01T13:01:46;7.85;;;2.38;;
9409;SDS011;4744;52.576;13.568;2023-02-01T13:04:23;2.72;;;0.98;;
9409;SDS011;4744;52.576;13.568;2023-02-01T13:06:53;1.55;;;0.60;;
9409;SDS011;4744;52.576;13.568;2023-02-01T13:09:36;1.13;;;0.70;;
9409;SDS011;4744;52.576;13.568;2023-02-01T13:12:10;0.38;;;0.38;;
9409;SDS011;4744;52.576;13.568;2023-02-01T13:14:40;0.63;;;0.60;;
9409;SDS011;4744;52.576;13.568;2023-02-01T13:17:12;2.08;;;0.55;;
9409;SDS011;4744;52.576;13.568;2023-02-01T13:19:44;1.55;;;0.60;;
9409;SDS011;4744;52.576;13.568;2023-02-01T13:22:17;1.30;;;0.60;;
9409;SDS011;4744;52.576;13.568;2023-02-01T13:24:50;2.38;;;0.50;;
9409;SDS011;4744;52.576;13.568;2023-02-01T13:27:18;1.00;;;0.47;;
9409;SDS011;4744;52.576;13.568;2023-02-01T13:29:48;1.33;;;0.50;;
9409;SDS011;4744;52.576;13.568;2023-02-01T13:32:39;0.43;;;0.40;;
9409;SDS011;4744;52.576;13.568;2023-02-01T13:41:24;1.17;;;0.77;;
9409;SDS011;4744;52.576;13.568;2023-02-01T13:43:54;0.80;;;0.80;;
9409;SDS011;4744;52.576;13.568;2023-02-01T13:46:24;1.25;;;0.80;;
9409;SDS011;4744;52.576;13.568;2023-02-01T13:48:52;1.05;;;0.90;;
9409;SDS011;4744;52.576;13.568;2023-02-01T13:51:32;1.13;;;0.70;;
9409;SDS011;4744;52.576;13.568;2023-02-01T13:54:02;1.23;;;0.77;;
9409;SDS011;4744;52.576;13.568;2023-02-01T13:56:39;0.82;;;0.70;;
9409;SDS011;4744;52.576;13.568;2023-02-01T14:05:03;4.13;;;1.70;;
9409;SDS011;4744;52.576;13.568;2023-02-01T14:07:30;6.43;;;2.28;;
9409;SDS011;4744;52.576;13.568;2023-02-01T14:09:57;5.95;;;2.15;;
9409;SDS011;4744;52.576;13.568;2023-02-01T14:12:44;8.38;;;2.45;;
9409;SDS011;4744;52.576;13.568;2023-02-01T14:15:21;8.18;;;2.17;;
9409;SDS011;4744;52.576;13.568;2023-02-01T14:17:50;5.78;;;2.10;;
9409;SDS011;4744;52.576;13.568;2023-02-01T14:23:29;10.35;;;2.42;;
9409;SDS011;4744;52.576;13.568;2023-02-01T14:26:03;5.68;;;1.75;;
9409;SDS011;4744;52.576;13.568;2023-02-01T14:28:54;4.45;;;2.08;;
9409;SDS011;4744;52.576;13.568;2023-02-01T14:31:32;6.18;;;2.03;;
9409;SDS011;4744;52.576;13.568;2023-02-01T14:34:20;6.88;;;2.35;;
9409;SDS011;4744;52.576;13.568;2023-02-01T14:36:54;7.88;;;2.33;;
9409;SDS011;4744;52.576;13.568;2023-02-01T14:39:29;4.10;;;1.95;;
9409;SDS011;4744;52.576;13.568;2023-02-01T14:42:04;6.30;;;1.90;;
9409;SDS011;4744;52.576;13.568;2023-02-01T14:44:40;4.97;;;1.80;;
9409;SDS011;4744;52.576;13.568;2023-02-01T14:47:09;8.27;;;2.10;;
9409;SDS011;4744;52.576;13.568;2023-02-01T14:49:59;5.07;;;2.50;;
9409;SDS011;4744;52.576;13.568;2023-02-01T14:52:45;7.78;;;2.17;;
9409;SDS011;4744;52.576;13.568;2023-02-01T14:55:14;7.05;;;2.53;;
9409;SDS011;4744;52.576;13.568;2023-02-01T14:57:45;7.32;;;2.50;;
9409;SDS011;4744;52.576;13.568;2023-02-01T15:00:22;10.70;;;2.53;;
9409;SDS011;4744;52.576;13.568;2023-02-01T15:02:52;6.65;;;2.22;;
9409;SDS011;4744;52.576;13.568;2023-02-01T15:05:24;8.35;;;2.42;;
9409;SDS011;4744;52.576;13.568;2023-02-01T15:07:56;7.68;;;2.70;;
9409;SDS011;4744;52.576;13.568;2023-02-01T15:10:26;9.52;;;2.65;;
9409;SDS011;4744;52.576;13.568;2023-02-01T15:12:56;7.50;;;2.53;;
9409;SDS011;4744;52.576;13.568;2023-02-01T15:15:24;7.63;;;2.72;;
9409;SDS011;4744;52.576;13.568;2023-02-01T15:17:52;8.07;;;2.40;;
9409;SDS011;4744;52.576;13.568;2023-02-01T15:20:21;7.30;;;2.33;;
9409;SDS011;4744;52.576;13.568;2023-02-01T15:22:52;5.95;;;2.45;;
9409;SDS011;4744;52.576;13.568;2023-02-01T15:25:22;8.95;;;2.60;;
9409;SDS011;4744;52.576;13.568;2023-02-01T15:27:50;6.68;;;2.33;;
9409;SDS011;4744;52.576;13.568;2023-02-01T15:30:19;5.65;;;1.90;;
9409;SDS011;4744;52.576;13.568;2023-02-01T15:32:49;4.82;;;2.05;;
9409;SDS011;4744;52.576;13.568;2023-02-01T15:35:33;6.38;;;1.80;;
9409;SDS011;4744;52.576;13.568;2023-02-01T15:40:56;1.42;;;1.00;;
9409;SDS011;4744;52.576;13.568;2023-02-01T15:43:25;1.23;;;1.13;;
9409;SDS011;4744;52.576;13.568;2023-02-01T15:45:55;2.05;;;1.20;;
9409;SDS011;4744;52.576;13.568;2023-02-01T15:48:25;1.40;;;0.90;;
9409;SDS011;4744;52.576;13.568;2023-02-01T15:50:53;1.17;;;0.98;;